createdAt,value
2022-09-12T00:01:21.357Z,95637.72
2022-09-12T00:03:48.500Z,95636.91
2022-09-12T00:06:23.303Z,95633.69
2022-09-12T00:08:51.174Z,95628.25
2022-09-12T00:11:18.191Z,95629.72
2022-09-12T00:13:44.651Z,95627.31
2022-09-12T00:16:16.279Z,95623.31
2022-09-12T00:18:42.930Z,95624.75
2022-09-12T00:21:09.477Z,95621.56
2022-09-12T00:23:35.913Z,95616.75
2022-09-12T00:26:05.966Z,95617.41
2022-09-12T00:28:35.333Z,95625.91
2022-09-12T00:31:06.390Z,95621.94
2022-09-12T00:33:33.462Z,95620.63
2022-09-12T00:36:00.024Z,95623.69
2022-09-12T00:38:26.580Z,95623.22
2022-09-12T00:40:53.063Z,95612.94
2022-09-12T00:43:40.786Z,95613.59
2022-09-12T00:46:28.240Z,95611.84
2022-09-12T00:49:00.175Z,95606.72
2022-09-12T00:51:29.428Z,95612.16
2022-09-12T00:53:57.966Z,95608.97
2022-09-12T00:56:24.575Z,95609.28
2022-09-12T00:58:57.816Z,95606.06
2022-09-12T01:01:26.592Z,95594.41
2022-09-12T01:03:55.831Z,95590.88
2022-09-12T01:06:27.067Z,95593.09
2022-09-12T01:08:54.976Z,95588.00
2022-09-12T01:11:22.668Z,95584.81
2022-09-12T01:13:50.844Z,95588.97
2022-09-12T01:16:17.333Z,95590.91
2022-09-12T01:19:14.329Z,95585.31
2022-09-12T01:22:21.279Z,95585.94
2022-09-12T01:24:53.872Z,95577.00
2022-09-12T01:27:32.360Z,95575.38
2022-09-12T01:30:17.347Z,95566.25
2022-09-12T01:32:59.240Z,95568.50
2022-09-12T01:35:31.487Z,95568.50
2022-09-12T01:38:18.943Z,95569.66
2022-09-12T01:40:51.447Z,95571.06
2022-09-12T01:43:21.399Z,95566.75
2022-09-12T01:45:58.029Z,95563.56
2022-09-12T01:48:36.489Z,95565.81
2022-09-12T01:51:31.965Z,95561.00
2022-09-12T01:54:21.306Z,95555.38
2022-09-12T01:56:53.860Z,95553.34
2022-09-12T01:59:27.584Z,95551.72
2022-09-12T02:02:02.411Z,95551.28
2022-09-12T02:04:35.310Z,95552.69
2022-09-12T02:07:14.263Z,95546.28
2022-09-12T02:09:43.659Z,95547.75
2022-09-12T02:12:13.948Z,95549.50
2022-09-12T02:14:47.690Z,95550.97
2022-09-12T02:17:19.131Z,95550.47
2022-09-12T02:19:49.554Z,95541.03
2022-09-12T02:22:19.752Z,95530.81
2022-09-12T02:24:50.564Z,95533.03
2022-09-12T02:27:21.391Z,95529.84
2022-09-12T02:29:48.756Z,95529.38
2022-09-12T02:32:29.399Z,95531.94
2022-09-12T02:35:08.443Z,95524.09
2022-09-12T02:37:37.667Z,95526.81
2022-09-12T02:40:04.803Z,95527.13
2022-09-12T02:42:31.368Z,95523.91
2022-09-12T02:44:58.042Z,95526.16
2022-09-12T02:47:34.406Z,95523.75
2022-09-12T02:50:01.283Z,95522.16
2022-09-12T02:52:29.558Z,95517.34
2022-09-12T02:54:58.139Z,95523.94
2022-09-12T02:57:24.772Z,95520.72
2022-09-12T02:59:55.613Z,95522.16
2022-09-12T03:02:54.508Z,95525.84
2022-09-12T03:05:33.199Z,95522.66
2022-09-12T03:08:29.965Z,95524.38
2022-09-12T03:11:22.867Z,95519.59
2022-09-12T03:14:17.937Z,95526.47
2022-09-12T03:16:50.390Z,95526.78
2022-09-12T03:19:33.775Z,95524.72
2022-09-12T03:22:20.716Z,95518.78
2022-09-12T03:25:17.620Z,95515.88
2022-09-12T03:27:59.615Z,95523.22
2022-09-12T03:30:27.143Z,95521.31
2022-09-12T03:32:54.762Z,95524.34
2022-09-12T03:35:24.347Z,95530.09
2022-09-12T03:37:52.417Z,95517.31
2022-09-12T03:40:19.074Z,95514.88
2022-09-12T03:42:45.522Z,95512.00
2022-09-12T03:45:12.120Z,95514.72
2022-09-12T03:47:39.438Z,95522.41
2022-09-12T03:50:06.569Z,95516.50
2022-09-12T03:52:33.324Z,95519.84
2022-09-12T03:54:59.959Z,95520.94
2022-09-12T03:57:26.489Z,95514.22
2022-09-12T03:59:52.939Z,95522.72
2022-09-12T04:02:19.516Z,95518.38
2022-09-12T04:04:46.136Z,95521.09
2022-09-12T04:07:12.675Z,95515.19
2022-09-12T04:09:39.197Z,95522.22
2022-09-12T04:12:06.153Z,95515.19
2022-09-12T04:14:32.793Z,95517.09
2022-09-12T04:17:00.023Z,95518.22
2022-09-12T04:19:29.300Z,95520.13
2022-09-12T04:21:55.822Z,95526.69
2022-09-12T04:24:22.603Z,95518.84
2022-09-12T04:26:49.195Z,95518.03
2022-09-12T04:29:15.919Z,95519.66
2022-09-12T04:31:42.920Z,95531.94
2022-09-12T04:34:09.556Z,95518.34
2022-09-12T04:36:36.355Z,95527.63
2022-09-12T04:39:04.722Z,95527.63
2022-09-12T04:41:33.665Z,95526.81
2022-09-12T04:44:06.632Z,95523.63
2022-09-12T04:46:35.963Z,95525.22
2022-09-12T04:49:03.315Z,95525.53
2022-09-12T04:51:33.503Z,95526.66
2022-09-12T04:54:02.635Z,95522.00
2022-09-12T04:56:30.441Z,95525.53
2022-09-12T04:58:58.901Z,95527.44
2022-09-12T05:01:25.909Z,95514.38
2022-09-12T05:03:52.915Z,95522.84
2022-09-12T05:06:23.115Z,95518.19
2022-09-12T05:08:50.994Z,95507.81
2022-09-12T05:11:24.591Z,95515.94
2022-09-12T05:13:52.182Z,95519.81
2022-09-12T05:16:19.759Z,95529.22
2022-09-12T05:18:47.147Z,95529.22
2022-09-12T05:21:17.043Z,95540.28
2022-09-12T05:23:43.830Z,95536.41
2022-09-12T05:26:15.972Z,95535.31
2022-09-12T05:28:43.219Z,95534.38
2022-09-12T05:31:15.184Z,95530.53
2022-09-12T05:33:44.280Z,95536.63
2022-09-12T05:36:19.335Z,95533.75
2022-09-12T05:38:46.973Z,95534.72
2022-09-12T05:41:24.205Z,95543.03
2022-09-12T05:43:53.904Z,95537.16
2022-09-12T05:46:22.756Z,95543.25
2022-09-12T05:48:55.107Z,95542.78
2022-09-12T05:51:28.253Z,95539.91
2022-09-12T05:54:00.271Z,95543.28
2022-09-12T05:56:29.404Z,95546.28
2022-09-12T05:59:01.823Z,95538.31
2022-09-12T06:01:29.825Z,95546.00
2022-09-12T06:03:58.373Z,95542.31
2022-09-12T06:06:25.651Z,95551.91
2022-09-12T06:08:55.767Z,95544.38
2022-09-12T06:11:24.657Z,95543.88
2022-09-12T06:13:51.136Z,95538.00
2022-09-12T06:16:25.961Z,95534.31
2022-09-12T06:19:01.290Z,95539.72
2022-09-12T06:21:28.541Z,95541.94
2022-09-12T06:23:55.565Z,95532.50
2022-09-12T06:26:22.673Z,95543.38
2022-09-12T06:28:50.293Z,95540.94
2022-09-12T06:31:19.943Z,95540.59
2022-09-12T06:33:49.817Z,95540.56
2022-09-12T06:36:19.416Z,95540.25
2022-09-12T06:38:45.974Z,95530.41
2022-09-12T06:41:12.877Z,95535.03
2022-09-12T06:43:40.801Z,95531.16
2022-09-12T06:46:08.271Z,95537.34
2022-09-12T06:48:39.607Z,95535.03
2022-09-12T06:51:13.451Z,95533.84
2022-09-12T06:53:40.418Z,95527.22
2022-09-12T06:56:11.070Z,95526.50
2022-09-12T06:58:38.173Z,95532.03
2022-09-12T07:01:06.141Z,95531.63
2022-09-12T07:03:33.389Z,95529.63
2022-09-12T07:06:08.155Z,95531.97
2022-09-12T07:08:35.397Z,95537.47
2022-09-12T07:11:16.276Z,95544.78
2022-09-12T07:13:44.372Z,95544.81
2022-09-12T07:16:14.823Z,95542.91
2022-09-12T07:18:44.727Z,95539.66
2022-09-12T07:21:15.582Z,95539.22
2022-09-12T07:23:42.500Z,95534.91
2022-09-12T07:26:13.776Z,95538.34
2022-09-12T07:28:41.043Z,95542.56
2022-09-12T07:31:13.479Z,95535.41
2022-09-12T07:33:41.647Z,95534.94
2022-09-12T07:36:10.355Z,95540.41
2022-09-12T07:38:37.812Z,95539.41
2022-09-12T07:41:15.405Z,95540.88
2022-09-12T07:43:41.906Z,95545.91
2022-09-12T07:46:08.884Z,95543.81
2022-09-12T07:48:35.894Z,95549.19
2022-09-12T07:51:10.935Z,95540.03
2022-09-12T07:53:40.200Z,95545.38
2022-09-12T07:56:08.674Z,95541.72
2022-09-12T07:58:36.671Z,95545.09
2022-09-12T08:01:06.023Z,95540.59
2022-09-12T08:03:32.775Z,95537.75
2022-09-12T08:06:06.837Z,95538.75
2022-09-12T08:08:33.566Z,95540.47
2022-09-12T08:11:01.367Z,95543.38
2022-09-12T08:13:29.187Z,95542.34
2022-09-12T08:16:00.438Z,95548.81
2022-09-12T08:18:28.322Z,95543.97
2022-09-12T08:21:03.801Z,95548.47
2022-09-12T08:23:30.724Z,95549.13
2022-09-12T08:25:59.632Z,95542.66
2022-09-12T08:28:27.868Z,95542.84
2022-09-12T08:30:54.739Z,95545.78
2022-09-12T08:33:21.231Z,95547.09
2022-09-12T08:35:47.709Z,95542.47
2022-09-12T08:38:14.269Z,95548.06
2022-09-12T08:40:51.136Z,95547.44
2022-09-12T08:43:56.695Z,95546.03
2022-09-12T08:46:39.205Z,95547.09
2022-09-12T08:49:11.913Z,95543.38
2022-09-12T08:51:39.758Z,95553.72
2022-09-12T08:54:22.549Z,95553.81
2022-09-12T08:56:49.039Z,95537.06
2022-09-12T08:59:16.247Z,95538.38
2022-09-12T09:01:45.208Z,95542.81
2022-09-12T09:04:36.312Z,95538.97
2022-09-12T09:07:20.742Z,95540.97
2022-09-12T09:10:05.678Z,95543.09
2022-09-12T09:12:55.475Z,95542.88
2022-09-12T09:15:45.124Z,95531.25
2022-09-12T09:18:19.892Z,95531.06
2022-09-12T09:20:55.396Z,95531.19
2022-09-12T09:23:31.544Z,95529.09
2022-09-12T09:25:59.371Z,95528.47
2022-09-12T09:28:45.213Z,95530.13
2022-09-12T09:31:23.231Z,95518.03
2022-09-12T09:33:52.536Z,95523.69
2022-09-12T09:36:45.676Z,95523.81
2022-09-12T09:39:23.987Z,95523.94
2022-09-12T09:42:13.788Z,95516.94
2022-09-12T09:44:40.494Z,95512.34
2022-09-12T09:47:10.996Z,95504.63
2022-09-12T09:49:37.497Z,95509.03
2022-09-12T09:52:07.159Z,95504.09
2022-09-12T09:54:46.266Z,95506.09
2022-09-12T09:57:34.238Z,95510.44
2022-09-12T10:00:28.858Z,95510.50
2022-09-12T10:03:01.507Z,95508.22
2022-09-12T10:05:28.202Z,95508.75
2022-09-12T10:07:54.747Z,95501.34
2022-09-12T10:10:21.506Z,95499.56
2022-09-12T10:12:48.766Z,95500.88
2022-09-12T10:15:23.526Z,95506.84
2022-09-12T10:17:51.219Z,95496.28
2022-09-12T10:20:44.896Z,95498.28
2022-09-12T10:23:34.124Z,95490.09
2022-09-12T10:26:03.045Z,95491.38
2022-09-12T10:28:37.374Z,95492.66
2022-09-12T10:31:04.478Z,95491.56
2022-09-12T10:33:37.468Z,95484.94
2022-09-12T10:36:04.261Z,95475.59
2022-09-12T10:38:32.702Z,95477.63
2022-09-12T10:41:03.372Z,95486.03
2022-09-12T10:43:38.649Z,95479.84
2022-09-12T10:46:17.327Z,95474.78
2022-09-12T10:48:46.113Z,95478.00
2022-09-12T10:51:24.434Z,95476.09
2022-09-12T10:53:53.584Z,95479.69
2022-09-12T10:56:22.880Z,95471.47
2022-09-12T10:59:20.327Z,95471.59
2022-09-12T11:01:49.497Z,95470.06
2022-09-12T11:04:34.736Z,95470.88
2022-09-12T11:07:41.829Z,95472.13
2022-09-12T11:10:17.309Z,95473.34
2022-09-12T11:13:07.263Z,95467.84
2022-09-12T11:16:04.969Z,95469.47
2022-09-12T11:18:51.036Z,95463.63
2022-09-12T11:22:06.349Z,95462.53
2022-09-12T11:24:54.347Z,95460.19
2022-09-12T11:27:45.318Z,95452.75
2022-09-12T11:30:15.520Z,95462.63
2022-09-12T11:32:57.028Z,95461.50
2022-09-12T11:35:26.210Z,95456.47
2022-09-12T11:38:10.515Z,95457.66
2022-09-12T11:40:51.749Z,95453.03
2022-09-12T11:43:32.788Z,95458.19
2022-09-12T11:46:09.349Z,95449.16
2022-09-12T11:48:38.763Z,95446.84
2022-09-12T11:51:15.997Z,95437.41
2022-09-12T11:53:45.118Z,95442.16
2022-09-12T11:56:17.969Z,95433.88
2022-09-12T11:58:56.915Z,95431.94
2022-09-12T12:01:31.733Z,95439.06
2022-09-12T12:04:01.394Z,95437.91
2022-09-12T12:06:32.132Z,95437.91
2022-09-12T12:08:58.914Z,95435.16
2022-09-12T12:11:34.316Z,95433.97
2022-09-12T12:14:04.582Z,95435.59
2022-09-12T12:16:37.521Z,95438.00
2022-09-12T12:19:25.141Z,95432.50
2022-09-12T12:21:52.358Z,95434.88
2022-09-12T12:24:26.336Z,95425.41
2022-09-12T12:27:02.202Z,95423.03
2022-09-12T12:29:31.677Z,95416.75
2022-09-12T12:32:01.142Z,95404.91
2022-09-12T12:34:35.256Z,95421.47
2022-09-12T12:37:19.848Z,95416.34
2022-09-12T12:39:46.321Z,95413.19
2022-09-12T12:42:32.841Z,95418.34
2022-09-12T12:45:00.580Z,95422.28
2022-09-12T12:47:34.038Z,95412.81
2022-09-12T12:50:06.026Z,95419.13
2022-09-12T12:52:48.534Z,95403.31
2022-09-12T12:55:26.763Z,95402.91
2022-09-12T12:57:55.882Z,95394.59
2022-09-12T13:00:25.280Z,95396.97
2022-09-12T13:03:04.069Z,95395.00
2022-09-12T13:05:48.747Z,95395.41
2022-09-12T13:08:18.158Z,95396.19
2022-09-12T13:10:59.832Z,95391.44
2022-09-12T13:13:57.283Z,95395.41
2022-09-12T13:16:49.981Z,95390.25
2022-09-12T13:19:25.813Z,95379.94
2022-09-12T13:21:55.923Z,95385.81
2022-09-12T13:24:23.449Z,95377.88
2022-09-12T13:26:49.987Z,95375.50
2022-09-12T13:29:18.813Z,95371.91
2022-09-12T13:31:53.426Z,95368.34
2022-09-12T13:34:29.354Z,95365.13
2022-09-12T13:36:55.792Z,95371.00
2022-09-12T13:39:34.989Z,95366.63
2022-09-12T13:42:26.340Z,95360.69
2022-09-12T13:44:58.761Z,95351.94
2022-09-12T13:47:35.541Z,95351.09
2022-09-12T13:50:04.636Z,95342.72
2022-09-12T13:52:34.610Z,95347.09
2022-09-12T13:55:05.448Z,95347.50
2022-09-12T13:57:35.494Z,95341.56
2022-09-12T14:00:07.662Z,95350.69
2022-09-12T14:02:36.500Z,95348.69
2022-09-12T14:05:13.430Z,95340.78
2022-09-12T14:07:56.129Z,95345.97
2022-09-12T14:10:48.627Z,95344.38
2022-09-12T14:13:24.846Z,95341.56
2022-09-12T14:15:53.985Z,95334.03
2022-09-12T14:18:32.674Z,95333.59
2022-09-12T14:21:08.525Z,95324.44
2022-09-12T14:23:37.955Z,95318.06
2022-09-12T14:26:05.226Z,95326.78
2022-09-12T14:28:32.936Z,95322.06
2022-09-12T14:31:12.867Z,95320.44
2022-09-12T14:34:08.368Z,95314.94
2022-09-12T14:36:40.020Z,95318.09
2022-09-12T14:39:17.992Z,95319.72
2022-09-12T14:41:45.007Z,95312.56
2022-09-12T14:44:23.417Z,95303.78
2022-09-12T14:46:50.508Z,95300.63
2022-09-12T14:49:36.890Z,95302.97
2022-09-12T14:52:27.865Z,95299.72
2022-09-12T14:55:03.565Z,95304.34
2022-09-12T14:57:40.074Z,95300.25
2022-09-12T15:00:12.455Z,95299.41
2022-09-12T15:02:40.419Z,95307.28
2022-09-12T15:05:06.889Z,95300.91
2022-09-12T15:07:41.785Z,95296.09
2022-09-12T15:10:20.572Z,95298.44
2022-09-12T15:12:47.162Z,95305.47
2022-09-12T15:15:19.386Z,95297.88
2022-09-12T15:17:46.477Z,95299.41
2022-09-12T15:20:14.663Z,95304.53
2022-09-12T15:22:42.396Z,95300.09
2022-09-12T15:25:12.270Z,95295.66
2022-09-12T15:27:38.886Z,95299.16
2022-09-12T15:30:05.999Z,95295.91
2022-09-12T15:32:32.570Z,95290.72
2022-09-12T15:34:59.126Z,95300.63
2022-09-12T15:37:25.622Z,95290.72
2022-09-12T15:39:52.485Z,95291.16
2022-09-12T15:42:29.171Z,95296.06
2022-09-12T15:44:59.428Z,95292.56
2022-09-12T15:47:28.396Z,95282.34
2022-09-12T15:49:54.837Z,95284.41
2022-09-12T15:52:21.456Z,95281.38
2022-09-12T15:54:48.245Z,95280.19
2022-09-12T15:57:14.819Z,95288.88
2022-09-12T15:59:41.305Z,95281.72
2022-09-12T16:02:09.923Z,95271.41
2022-09-12T16:04:36.493Z,95277.75
2022-09-12T16:07:03.032Z,95269.84
2022-09-12T16:09:29.748Z,95268.16
2022-09-12T16:11:56.232Z,95268.84
2022-09-12T16:14:22.765Z,95272.75
2022-09-12T16:16:54.115Z,95272.75
2022-09-12T16:19:21.043Z,95275.19
2022-09-12T16:21:48.060Z,95279.28
2022-09-12T16:24:14.596Z,95277.06
2022-09-12T16:26:41.204Z,95281.13
2022-09-12T16:29:10.499Z,95274.09
2022-09-12T16:31:37.103Z,95271.00
2022-09-12T16:34:03.825Z,95268.69
2022-09-12T16:36:30.362Z,95269.91
2022-09-12T16:38:56.924Z,95262.38
2022-09-12T16:41:24.895Z,95262.25
2022-09-12T16:43:51.323Z,95259.09
2022-09-12T16:46:20.482Z,95257.97
2022-09-12T16:48:52.133Z,95252.97
2022-09-12T16:51:25.091Z,95253.56
2022-09-12T16:53:51.797Z,95250.16
2022-09-12T16:56:18.779Z,95248.47
2022-09-12T16:58:45.725Z,95252.13
2022-09-12T17:01:17.709Z,95244.69
2022-09-12T17:03:44.585Z,95242.88
2022-09-12T17:06:17.883Z,95244.22
2022-09-12T17:08:47.068Z,95235.72
2022-09-12T17:11:26.000Z,95241.50
2022-09-12T17:14:10.178Z,95243.31
2022-09-12T17:16:39.787Z,95245.91
2022-09-12T17:19:07.655Z,95250.09
2022-09-12T17:21:34.400Z,95256.63
2022-09-12T17:24:01.025Z,95252.84
2022-09-12T17:26:27.666Z,95253.78
2022-09-12T17:28:54.113Z,95260.59
2022-09-12T17:31:20.794Z,95261.44
2022-09-12T17:33:47.405Z,95260.31
2022-09-12T17:36:16.507Z,95265.06
2022-09-12T17:38:45.360Z,95272.19
2022-09-12T17:41:18.072Z,95262.66
2022-09-12T17:43:46.025Z,95269.69
2022-09-12T17:46:12.964Z,95267.66
2022-09-12T17:48:39.476Z,95269.59
2022-09-12T17:51:10.335Z,95267.13
2022-09-12T17:53:37.038Z,95265.50
2022-09-12T17:56:04.993Z,95271.69
2022-09-12T17:58:32.516Z,95275.50
2022-09-12T18:01:12.347Z,95272.25
2022-09-12T18:03:38.866Z,95267.81
2022-09-12T18:06:05.504Z,95275.94
2022-09-12T18:08:32.030Z,95277.38
2022-09-12T18:11:05.032Z,95276.44
2022-09-12T18:13:35.051Z,95273.97
2022-09-12T18:16:09.572Z,95282.50
2022-09-12T18:18:36.993Z,95279.63
2022-09-12T18:21:05.499Z,95273.22
2022-09-12T18:23:32.787Z,95277.81
2022-09-12T18:26:01.280Z,95285.09
2022-09-12T18:28:28.007Z,95277.50
2022-09-12T18:30:54.708Z,95285.25
2022-09-12T18:33:24.059Z,95283.16
2022-09-12T18:35:51.060Z,95288.13
2022-09-12T18:38:17.797Z,95287.59
2022-09-12T18:40:44.331Z,95284.31
2022-09-12T18:43:10.870Z,95288.13
2022-09-12T18:45:37.382Z,95287.22
2022-09-12T18:48:03.966Z,95288.28
2022-09-12T18:50:31.012Z,95282.69
2022-09-12T18:52:59.781Z,95282.91
2022-09-12T18:55:26.698Z,95280.03
2022-09-12T18:57:55.275Z,95292.50
2022-09-12T19:00:21.763Z,95281.41
2022-09-12T19:02:48.357Z,95282.44
2022-09-12T19:05:15.040Z,95278.41
2022-09-12T19:07:41.640Z,95271.63
2022-09-12T19:10:08.430Z,95269.56
2022-09-12T19:12:34.938Z,95270.22
2022-09-12T19:15:01.453Z,95275.56
2022-09-12T19:17:28.169Z,95277.03
2022-09-12T19:19:54.763Z,95272.97
2022-09-12T19:22:21.290Z,95271.72
2022-09-12T19:24:47.732Z,95272.00
2022-09-12T19:27:14.179Z,95278.88
2022-09-12T19:29:40.734Z,95278.41
2022-09-12T19:32:07.380Z,95275.97
2022-09-12T19:34:33.983Z,95271.56
2022-09-12T19:37:00.524Z,95280.84
2022-09-12T19:39:27.207Z,95276.44
2022-09-12T19:41:53.694Z,95275.56
2022-09-12T19:44:20.165Z,95278.25
2022-09-12T19:46:46.848Z,95272.28
2022-09-12T19:49:13.484Z,95275.72
2022-09-12T19:51:40.223Z,95276.44
2022-09-12T19:54:07.006Z,95275.56
2022-09-12T19:56:33.477Z,95278.59
2022-09-12T19:59:00.003Z,95273.03
2022-09-12T20:01:27.416Z,95264.72
2022-09-12T20:03:54.179Z,95276.75
2022-09-12T20:06:21.294Z,95273.16
2022-09-12T20:08:47.947Z,95270.34
2022-09-12T20:11:19.581Z,95274.16
2022-09-12T20:13:46.422Z,95277.59
2022-09-12T20:16:17.660Z,95282.19
2022-09-12T20:18:47.375Z,95291.94
2022-09-12T20:21:16.733Z,95284.78
2022-09-12T20:23:44.483Z,95290.16
2022-09-12T20:26:11.550Z,95285.72
2022-09-12T20:28:39.067Z,95285.63
2022-09-12T20:31:07.963Z,95292.63
2022-09-12T20:33:34.549Z,95287.03
2022-09-12T20:36:16.300Z,95284.59
2022-09-12T20:38:54.314Z,95286.44
2022-09-12T20:41:21.139Z,95279.75
2022-09-12T20:43:55.466Z,95285.13
2022-09-12T20:46:23.402Z,95269.41
2022-09-12T20:48:51.619Z,95282.63
2022-09-12T20:51:18.917Z,95279.19
2022-09-12T20:53:45.441Z,95276.22
2022-09-12T20:56:12.028Z,95260.16
2022-09-12T20:58:43.584Z,95261.22
2022-09-12T21:01:12.521Z,95263.84
2022-09-12T21:03:40.115Z,95256.34
2022-09-12T21:06:07.880Z,95251.59
2022-09-12T21:08:35.551Z,95251.47
2022-09-12T21:11:02.388Z,95253.00
2022-09-12T21:13:29.815Z,95262.34
2022-09-12T21:16:04.093Z,95258.72
2022-09-12T21:18:32.298Z,95258.28
2022-09-12T21:20:58.877Z,95260.72
2022-09-12T21:23:26.748Z,95264.78
2022-09-12T21:25:53.831Z,95261.63
2022-09-12T21:28:21.102Z,95265.50
2022-09-12T21:30:48.840Z,95270.88
2022-09-12T21:33:15.510Z,95272.34
2022-09-12T21:35:42.099Z,95265.66
2022-09-12T21:38:08.620Z,95269.09
2022-09-12T21:40:35.185Z,95267.06
2022-09-12T21:43:01.682Z,95269.34
2022-09-12T21:45:28.617Z,95261.03
2022-09-12T21:47:55.143Z,95261.38
2022-09-12T21:50:22.192Z,95255.47
2022-09-12T21:52:48.732Z,95258.91
2022-09-12T21:55:15.180Z,95255.41
2022-09-12T21:57:41.942Z,95247.53
2022-09-12T22:00:13.086Z,95256.88
2022-09-12T22:02:39.739Z,95265.75
2022-09-12T22:05:06.541Z,95268.03
2022-09-12T22:07:33.380Z,95258.59
2022-09-12T22:09:59.849Z,95264.41
2022-09-12T22:12:26.427Z,95269.41
2022-09-12T22:14:53.083Z,95270.56
2022-09-12T22:17:19.599Z,95268.16
2022-09-12T22:19:46.107Z,95261.47
2022-09-12T22:22:12.739Z,95268.91
2022-09-12T22:24:39.201Z,95267.19
2022-09-12T22:27:06.984Z,95269.47
2022-09-12T22:29:34.022Z,95260.81
2022-09-12T22:32:00.775Z,95254.94
2022-09-12T22:34:28.621Z,95258.00
2022-09-12T22:36:55.531Z,95252.06
2022-09-12T22:39:22.956Z,95260.59
2022-09-12T22:41:49.663Z,95246.84
2022-09-12T22:44:16.192Z,95246.84
2022-09-12T22:46:42.779Z,95242.44
2022-09-12T22:49:09.604Z,95236.53
2022-09-12T22:51:36.172Z,95228.25
2022-09-12T22:54:02.780Z,95233.59
2022-09-12T22:56:29.243Z,95240.53
2022-09-12T22:58:55.862Z,95237.72
2022-09-12T23:01:22.873Z,95246.25
2022-09-12T23:03:49.996Z,95237.16
2022-09-12T23:06:17.450Z,95242.16
2022-09-12T23:08:43.903Z,95239.34
2022-09-12T23:11:12.911Z,95238.09
2022-09-12T23:13:42.488Z,95232.53
2022-09-12T23:16:14.404Z,95225.03
2022-09-12T23:18:41.108Z,95221.81
2022-09-12T23:21:09.815Z,95215.94
2022-09-12T23:23:36.590Z,95225.25
2022-09-12T23:26:18.684Z,95224.03
2022-09-12T23:28:50.477Z,95230.94
2022-09-12T23:31:17.140Z,95227.78
2022-09-12T23:33:44.064Z,95223.78
2022-09-12T23:36:12.322Z,95226.84
2022-09-12T23:38:38.796Z,95218.22
2022-09-12T23:41:05.493Z,95226.75
2022-09-12T23:43:32.277Z,95217.31
2022-09-12T23:45:58.917Z,95219.59
2022-09-12T23:48:25.631Z,95223.81
2022-09-12T23:50:52.792Z,95217.91
2022-09-12T23:53:20.023Z,95217.44
2022-09-12T23:55:47.051Z,95215.41
2022-09-12T23:58:14.254Z,95214.63
